sensor_id;sensor_type;location;lat;lon;timestamp;temperature;humidity
31979;DHT22;18502;43.574;1.276;2022-12-10T00:02:01;7.50;99.90
31979;DHT22;18502;43.574;1.276;2022-12-10T00:04:26;7.50;99.90
31979;DHT22;18502;43.574;1.276;2022-12-10T00:06:52;7.40;99.90
31979;DHT22;18502;43.574;1.276;2022-12-10T00:09:18;7.30;99.90
31979;DHT22;18502;43.574;1.276;2022-12-10T00:11:45;7.20;99.90
31979;DHT22;18502;43.574;1.276;2022-12-10T00:14:11;7.10;99.90
31979;DHT22;18502;43.574;1.276;2022-12-10T00:16:37;7.20;99.90
31979;DHT22;18502;43.574;1.276;2022-12-10T00:19:03;7.20;99.90
31979;DHT22;18502;43.574;1.276;2022-12-10T00:21:29;7.10;99.90
31979;DHT22;18502;43.574;1.276;2022-12-10T00:23:55;7.10;99.90
31979;DHT22;18502;43.574;1.276;2022-12-10T00:26:25;7.10;99.90
31979;DHT22;18502;43.574;1.276;2022-12-10T00:28:52;7.00;99.90
31979;DHT22;18502;43.574;1.276;2022-12-10T00:31:19;7.00;99.90
31979;DHT22;18502;43.574;1.276;2022-12-10T00:33:45;6.90;99.90
31979;DHT22;18502;43.574;1.276;2022-12-10T00:36:12;6.80;99.90
31979;DHT22;18502;43.574;1.276;2022-12-10T00:38:39;6.80;99.90
31979;DHT22;18502;43.574;1.276;2022-12-10T00:41:04;6.70;99.90
31979;DHT22;18502;43.574;1.276;2022-12-10T00:43:30;6.80;99.90
31979;DHT22;18502;43.574;1.276;2022-12-10T00:45:56;6.70;99.90
31979;DHT22;18502;43.574;1.276;2022-12-10T00:48:22;6.80;99.90
31979;DHT22;18502;43.574;1.276;2022-12-10T00:50:58;6.70;99.90
31979;DHT22;18502;43.574;1.276;2022-12-10T00:53:24;6.60;99.90
31979;DHT22;18502;43.574;1.276;2022-12-10T00:55:50;6.80;99.90
31979;DHT22;18502;43.574;1.276;2022-12-10T00:58:16;6.60;99.90
31979;DHT22;18502;43.574;1.276;2022-12-10T01:00:41;6.50;99.90
31979;DHT22;18502;43.574;1.276;2022-12-10T01:03:07;6.30;99.90
31979;DHT22;18502;43.574;1.276;2022-12-10T01:05:32;6.40;99.90
31979;DHT22;18502;43.574;1.276;2022-12-10T01:07:58;6.30;99.90
31979;DHT22;18502;43.574;1.276;2022-12-10T01:10:23;6.30;99.90
31979;DHT22;18502;43.574;1.276;2022-12-10T01:12:49;6.20;99.90
31979;DHT22;18502;43.574;1.276;2022-12-10T01:15:14;6.20;99.90
31979;DHT22;18502;43.574;1.276;2022-12-10T01:17:40;6.10;99.90
31979;DHT22;18502;43.574;1.276;2022-12-10T01:20:06;6.20;99.90
31979;DHT22;18502;43.574;1.276;2022-12-10T01:22:32;6.10;99.90
31979;DHT22;18502;43.574;1.276;2022-12-10T01:24:57;5.90;99.90
31979;DHT22;18502;43.574;1.276;2022-12-10T01:27:23;5.90;99.90
31979;DHT22;18502;43.574;1.276;2022-12-10T01:29:48;5.80;99.90
31979;DHT22;18502;43.574;1.276;2022-12-10T01:32:14;5.80;99.90
31979;DHT22;18502;43.574;1.276;2022-12-10T01:34:39;5.80;99.90
31979;DHT22;18502;43.574;1.276;2022-12-10T01:37:05;5.80;99.90
31979;DHT22;18502;43.574;1.276;2022-12-10T01:39:31;5.80;99.90
31979;DHT22;18502;43.574;1.276;2022-12-10T01:41:57;5.80;99.90
31979;DHT22;18502;43.574;1.276;2022-12-10T01:46:50;5.70;99.90
31979;DHT22;18502;43.574;1.276;2022-12-10T01:49:17;5.70;99.90
31979;DHT22;18502;43.574;1.276;2022-12-10T01:51:44;5.60;99.90
31979;DHT22;18502;43.574;1.276;2022-12-10T01:54:12;5.60;99.90
31979;DHT22;18502;43.574;1.276;2022-12-10T01:56:40;5.60;99.90
31979;DHT22;18502;43.574;1.276;2022-12-10T01:59:06;5.60;99.90
31979;DHT22;18502;43.574;1.276;2022-12-10T02:04:06;5.50;99.90
31979;DHT22;18502;43.574;1.276;2022-12-10T02:09:20;5.40;99.90
31979;DHT22;18502;43.574;1.276;2022-12-10T02:14:20;5.50;99.90
31979;DHT22;18502;43.574;1.276;2022-12-10T02:16:49;5.50;99.90
31979;DHT22;18502;43.574;1.276;2022-12-10T02:21:42;5.30;99.90
31979;DHT22;18502;43.574;1.276;2022-12-10T02:24:10;5.30;99.90
31979;DHT22;18502;43.574;1.276;2022-12-10T02:26:41;5.30;99.90
31979;DHT22;18502;43.574;1.276;2022-12-10T02:31:37;5.20;99.90
31979;DHT22;18502;43.574;1.276;2022-12-10T02:34:04;5.20;99.90
31979;DHT22;18502;43.574;1.276;2022-12-10T02:36:33;5.10;99.90
31979;DHT22;18502;43.574;1.276;2022-12-10T02:39:00;5.00;99.90
31979;DHT22;18502;43.574;1.276;2022-12-10T02:41:37;5.00;99.90
31979;DHT22;18502;43.574;1.276;2022-12-10T02:44:05;5.10;99.90
31979;DHT22;18502;43.574;1.276;2022-12-10T02:46:32;5.10;99.90
31979;DHT22;18502;43.574;1.276;2022-12-10T02:48:59;5.10;99.90
31979;DHT22;18502;43.574;1.276;2022-12-10T02:51:26;5.00;99.90
31979;DHT22;18502;43.574;1.276;2022-12-10T02:54:02;4.90;99.90
31979;DHT22;18502;43.574;1.276;2022-12-10T02:56:51;4.80;99.90
31979;DHT22;18502;43.574;1.276;2022-12-10T02:59:16;4.90;99.90
31979;DHT22;18502;43.574;1.276;2022-12-10T03:01:52;4.80;99.90
31979;DHT22;18502;43.574;1.276;2022-12-10T03:06:50;4.80;99.90
31979;DHT22;18502;43.574;1.276;2022-12-10T03:09:27;4.80;99.90
31979;DHT22;18502;43.574;1.276;2022-12-10T03:11:58;4.60;99.90
31979;DHT22;18502;43.574;1.276;2022-12-10T03:14:28;4.60;99.90
31979;DHT22;18502;43.574;1.276;2022-12-10T03:16:55;4.60;99.90
31979;DHT22;18502;43.574;1.276;2022-12-10T03:19:21;4.60;99.90
31979;DHT22;18502;43.574;1.276;2022-12-10T03:21:49;4.50;99.90
31979;DHT22;18502;43.574;1.276;2022-12-10T03:24:15;4.60;99.90
31979;DHT22;18502;43.574;1.276;2022-12-10T03:26:42;4.40;99.90
31979;DHT22;18502;43.574;1.276;2022-12-10T03:29:10;4.40;99.90
31979;DHT22;18502;43.574;1.276;2022-12-10T03:31:38;4.30;99.90
31979;DHT22;18502;43.574;1.276;2022-12-10T03:34:05;4.40;99.90
31979;DHT22;18502;43.574;1.276;2022-12-10T03:36:32;4.20;99.90
31979;DHT22;18502;43.574;1.276;2022-12-10T03:38:57;4.20;99.90
31979;DHT22;18502;43.574;1.276;2022-12-10T03:41:23;4.30;99.90
31979;DHT22;18502;43.574;1.276;2022-12-10T03:43:50;4.30;99.90
31979;DHT22;18502;43.574;1.276;2022-12-10T03:46:16;4.30;99.90
31979;DHT22;18502;43.574;1.276;2022-12-10T03:48:41;4.20;99.90
31979;DHT22;18502;43.574;1.276;2022-12-10T03:51:07;4.10;99.90
31979;DHT22;18502;43.574;1.276;2022-12-10T03:53:32;4.10;99.90
31979;DHT22;18502;43.574;1.276;2022-12-10T03:55:58;4.00;99.90
31979;DHT22;18502;43.574;1.276;2022-12-10T03:58:23;3.90;99.90
31979;DHT22;18502;43.574;1.276;2022-12-10T04:00:50;3.90;99.90
31979;DHT22;18502;43.574;1.276;2022-12-10T04:03:15;3.90;99.90
31979;DHT22;18502;43.574;1.276;2022-12-10T04:05:41;3.90;99.90
31979;DHT22;18502;43.574;1.276;2022-12-10T04:08:06;3.90;99.90
31979;DHT22;18502;43.574;1.276;2022-12-10T04:10:34;3.90;99.90
31979;DHT22;18502;43.574;1.276;2022-12-10T04:13:00;4.00;99.90
31979;DHT22;18502;43.574;1.276;2022-12-10T04:15:46;4.10;99.90
31979;DHT22;18502;43.574;1.276;2022-12-10T04:18:30;4.00;99.90
31979;DHT22;18502;43.574;1.276;2022-12-10T04:20:55;3.70;99.90
31979;DHT22;18502;43.574;1.276;2022-12-10T04:23:39;3.70;99.90
31979;DHT22;18502;43.574;1.276;2022-12-10T04:26:23;3.70;99.90
31979;DHT22;18502;43.574;1.276;2022-12-10T04:29:09;3.50;99.90
31979;DHT22;18502;43.574;1.276;2022-12-10T04:31:35;3.60;99.90
31979;DHT22;18502;43.574;1.276;2022-12-10T04:34:00;3.40;99.90
31979;DHT22;18502;43.574;1.276;2022-12-10T04:36:26;3.40;99.90
31979;DHT22;18502;43.574;1.276;2022-12-10T04:38:51;3.30;99.90
31979;DHT22;18502;43.574;1.276;2022-12-10T04:41:17;3.30;99.90
31979;DHT22;18502;43.574;1.276;2022-12-10T04:43:43;3.30;99.90
31979;DHT22;18502;43.574;1.276;2022-12-10T04:46:09;3.20;99.90
31979;DHT22;18502;43.574;1.276;2022-12-10T04:48:35;3.30;99.90
31979;DHT22;18502;43.574;1.276;2022-12-10T04:51:01;3.20;99.90
31979;DHT22;18502;43.574;1.276;2022-12-10T04:53:26;3.20;99.90
31979;DHT22;18502;43.574;1.276;2022-12-10T04:55:52;3.00;99.90
31979;DHT22;18502;43.574;1.276;2022-12-10T04:58:17;3.10;99.90
31979;DHT22;18502;43.574;1.276;2022-12-10T05:00:43;3.00;99.90
31979;DHT22;18502;43.574;1.276;2022-12-10T05:03:08;2.90;99.90
31979;DHT22;18502;43.574;1.276;2022-12-10T05:05:34;3.00;99.90
31979;DHT22;18502;43.574;1.276;2022-12-10T05:08:00;2.80;99.90
31979;DHT22;18502;43.574;1.276;2022-12-10T05:10:25;2.80;99.90
31979;DHT22;18502;43.574;1.276;2022-12-10T05:12:51;2.70;99.90
31979;DHT22;18502;43.574;1.276;2022-12-10T05:15:17;2.60;99.90
31979;DHT22;18502;43.574;1.276;2022-12-10T05:17:43;2.60;99.90
31979;DHT22;18502;43.574;1.276;2022-12-10T05:20:08;2.50;99.90
31979;DHT22;18502;43.574;1.276;2022-12-10T05:22:34;2.60;99.90
31979;DHT22;18502;43.574;1.276;2022-12-10T05:25:18;2.60;99.90
31979;DHT22;18502;43.574;1.276;2022-12-10T05:27:43;2.60;99.90
31979;DHT22;18502;43.574;1.276;2022-12-10T05:30:09;2.50;99.90
31979;DHT22;18502;43.574;1.276;2022-12-10T05:32:35;2.40;99.90
31979;DHT22;18502;43.574;1.276;2022-12-10T05:35:01;2.40;99.90
31979;DHT22;18502;43.574;1.276;2022-12-10T05:37:27;2.40;99.90
31979;DHT22;18502;43.574;1.276;2022-12-10T05:39:52;2.40;99.90
31979;DHT22;18502;43.574;1.276;2022-12-10T05:42:18;2.40;99.90
31979;DHT22;18502;43.574;1.276;2022-12-10T05:44:43;2.40;99.90
31979;DHT22;18502;43.574;1.276;2022-12-10T05:47:09;2.30;99.90
31979;DHT22;18502;43.574;1.276;2022-12-10T05:49:34;2.30;99.90
31979;DHT22;18502;43.574;1.276;2022-12-10T05:52:00;2.10;99.90
31979;DHT22;18502;43.574;1.276;2022-12-10T05:54:25;2.20;99.90
31979;DHT22;18502;43.574;1.276;2022-12-10T05:56:51;2.10;99.90
31979;DHT22;18502;43.574;1.276;2022-12-10T05:59:16;1.80;99.90
31979;DHT22;18502;43.574;1.276;2022-12-10T06:01:42;1.80;99.90
31979;DHT22;18502;43.574;1.276;2022-12-10T06:04:08;2.00;99.90
31979;DHT22;18502;43.574;1.276;2022-12-10T06:06:35;2.00;99.90
31979;DHT22;18502;43.574;1.276;2022-12-10T06:09:01;2.00;99.90
31979;DHT22;18502;43.574;1.276;2022-12-10T06:11:27;2.10;99.90
31979;DHT22;18502;43.574;1.276;2022-12-10T06:13:53;2.00;99.90
31979;DHT22;18502;43.574;1.276;2022-12-10T06:16:20;2.00;99.90
31979;DHT22;18502;43.574;1.276;2022-12-10T06:18:45;2.00;99.90
31979;DHT22;18502;43.574;1.276;2022-12-10T06:21:13;1.90;99.90
31979;DHT22;18502;43.574;1.276;2022-12-10T06:23:39;2.00;99.90
31979;DHT22;18502;43.574;1.276;2022-12-10T06:26:09;2.00;99.90
31979;DHT22;18502;43.574;1.276;2022-12-10T06:28:34;1.80;99.90
31979;DHT22;18502;43.574;1.276;2022-12-10T06:31:00;2.00;99.90
31979;DHT22;18502;43.574;1.276;2022-12-10T06:33:26;1.90;99.90
31979;DHT22;18502;43.574;1.276;2022-12-10T06:35:51;1.90;99.90
31979;DHT22;18502;43.574;1.276;2022-12-10T06:38:17;2.00;99.90
31979;DHT22;18502;43.574;1.276;2022-12-10T06:40:44;2.10;99.90
31979;DHT22;18502;43.574;1.276;2022-12-10T06:43:09;2.10;99.90
31979;DHT22;18502;43.574;1.276;2022-12-10T06:45:38;2.10;99.90
31979;DHT22;18502;43.574;1.276;2022-12-10T06:48:04;2.10;99.90
31979;DHT22;18502;43.574;1.276;2022-12-10T06:50:30;1.90;99.90
31979;DHT22;18502;43.574;1.276;2022-12-10T06:52:55;1.90;99.90
31979;DHT22;18502;43.574;1.276;2022-12-10T06:55:21;1.90;99.90
31979;DHT22;18502;43.574;1.276;2022-12-10T06:57:47;1.80;99.90
31979;DHT22;18502;43.574;1.276;2022-12-10T07:00:15;1.70;99.90
31979;DHT22;18502;43.574;1.276;2022-12-10T07:02:41;1.80;99.90
31979;DHT22;18502;43.574;1.276;2022-12-10T07:05:06;1.70;99.90
31979;DHT22;18502;43.574;1.276;2022-12-10T07:07:32;1.70;99.90
31979;DHT22;18502;43.574;1.276;2022-12-10T07:09:58;1.70;99.90
31979;DHT22;18502;43.574;1.276;2022-12-10T07:12:23;1.80;99.90
31979;DHT22;18502;43.574;1.276;2022-12-10T07:14:49;1.80;99.90
31979;DHT22;18502;43.574;1.276;2022-12-10T07:17:14;1.80;99.90
31979;DHT22;18502;43.574;1.276;2022-12-10T07:19:40;1.70;99.90
31979;DHT22;18502;43.574;1.276;2022-12-10T07:22:05;1.80;99.90
31979;DHT22;18502;43.574;1.276;2022-12-10T07:24:31;1.80;99.90
31979;DHT22;18502;43.574;1.276;2022-12-10T07:26:57;1.80;99.90
31979;DHT22;18502;43.574;1.276;2022-12-10T07:29:22;1.80;99.90
31979;DHT22;18502;43.574;1.276;2022-12-10T07:31:48;1.70;99.90
31979;DHT22;18502;43.574;1.276;2022-12-10T07:34:14;1.70;99.90
31979;DHT22;18502;43.574;1.276;2022-12-10T07:36:40;1.80;99.90
31979;DHT22;18502;43.574;1.276;2022-12-10T07:39:06;1.70;99.90
31979;DHT22;18502;43.574;1.276;2022-12-10T07:41:32;1.50;99.90
31979;DHT22;18502;43.574;1.276;2022-12-10T07:43:58;1.40;99.90
31979;DHT22;18502;43.574;1.276;2022-12-10T07:46:29;1.50;99.90
31979;DHT22;18502;43.574;1.276;2022-12-10T07:48:54;1.40;99.90
31979;DHT22;18502;43.574;1.276;2022-12-10T07:51:20;1.40;99.90
31979;DHT22;18502;43.574;1.276;2022-12-10T07:53:46;1.40;99.90
31979;DHT22;18502;43.574;1.276;2022-12-10T07:56:12;1.40;99.90
31979;DHT22;18502;43.574;1.276;2022-12-10T07:58:40;1.40;99.90
31979;DHT22;18502;43.574;1.276;2022-12-10T08:01:13;1.30;99.90
31979;DHT22;18502;43.574;1.276;2022-12-10T08:03:38;1.40;99.90
31979;DHT22;18502;43.574;1.276;2022-12-10T08:06:06;1.30;99.90
31979;DHT22;18502;43.574;1.276;2022-12-10T08:08:32;1.40;99.90
31979;DHT22;18502;43.574;1.276;2022-12-10T08:10:59;1.30;99.90
31979;DHT22;18502;43.574;1.276;2022-12-10T08:13:24;1.30;99.90
31979;DHT22;18502;43.574;1.276;2022-12-10T08:15:50;1.30;99.90
31979;DHT22;18502;43.574;1.276;2022-12-10T08:18:15;1.10;99.90
31979;DHT22;18502;43.574;1.276;2022-12-10T08:20:41;1.20;99.90
31979;DHT22;18502;43.574;1.276;2022-12-10T08:23:06;1.20;99.90
31979;DHT22;18502;43.574;1.276;2022-12-10T08:25:32;1.00;99.90
31979;DHT22;18502;43.574;1.276;2022-12-10T08:27:57;1.00;99.90
31979;DHT22;18502;43.574;1.276;2022-12-10T08:30:25;0.90;99.90
31979;DHT22;18502;43.574;1.276;2022-12-10T08:32:50;0.90;99.90
31979;DHT22;18502;43.574;1.276;2022-12-10T08:35:16;0.90;99.90
31979;DHT22;18502;43.574;1.276;2022-12-10T08:37:41;1.00;99.90
31979;DHT22;18502;43.574;1.276;2022-12-10T08:40:07;1.10;99.90
31979;DHT22;18502;43.574;1.276;2022-12-10T08:42:33;1.10;99.90
31979;DHT22;18502;43.574;1.276;2022-12-10T08:44:58;1.00;99.90
31979;DHT22;18502;43.574;1.276;2022-12-10T08:47:24;1.30;99.90
31979;DHT22;18502;43.574;1.276;2022-12-10T08:49:49;1.10;99.90
31979;DHT22;18502;43.574;1.276;2022-12-10T08:52:15;1.10;99.90
31979;DHT22;18502;43.574;1.276;2022-12-10T08:54:40;1.20;99.90
31979;DHT22;18502;43.574;1.276;2022-12-10T08:57:06;1.10;99.90
31979;DHT22;18502;43.574;1.276;2022-12-10T08:59:31;1.20;99.90
31979;DHT22;18502;43.574;1.276;2022-12-10T09:01:57;1.10;99.90
31979;DHT22;18502;43.574;1.276;2022-12-10T09:04:22;1.10;99.90
31979;DHT22;18502;43.574;1.276;2022-12-10T09:06:48;1.30;99.90
31979;DHT22;18502;43.574;1.276;2022-12-10T09:09:14;1.30;99.90
31979;DHT22;18502;43.574;1.276;2022-12-10T09:11:39;1.50;99.90
31979;DHT22;18502;43.574;1.276;2022-12-10T09:14:05;1.60;99.90
31979;DHT22;18502;43.574;1.276;2022-12-10T09:16:34;1.60;99.90
31979;DHT22;18502;43.574;1.276;2022-12-10T09:19:00;1.80;99.90
31979;DHT22;18502;43.574;1.276;2022-12-10T09:21:26;2.00;99.90
31979;DHT22;18502;43.574;1.276;2022-12-10T09:23:52;2.20;99.90
31979;DHT22;18502;43.574;1.276;2022-12-10T09:26:18;2.00;99.90
31979;DHT22;18502;43.574;1.276;2022-12-10T09:28:44;2.00;99.90
31979;DHT22;18502;43.574;1.276;2022-12-10T09:31:10;2.10;99.90
31979;DHT22;18502;43.574;1.276;2022-12-10T09:33:36;1.90;99.90
31979;DHT22;18502;43.574;1.276;2022-12-10T09:36:05;1.60;99.90
31979;DHT22;18502;43.574;1.276;2022-12-10T09:38:36;1.80;99.90
31979;DHT22;18502;43.574;1.276;2022-12-10T09:43:54;2.10;99.90
31979;DHT22;18502;43.574;1.276;2022-12-10T09:51:44;2.20;99.90
31979;DHT22;18502;43.574;1.276;2022-12-10T09:54:22;2.40;99.90
31979;DHT22;18502;43.574;1.276;2022-12-10T09:56:50;2.40;99.90
31979;DHT22;18502;43.574;1.276;2022-12-10T09:59:32;2.80;99.90
31979;DHT22;18502;43.574;1.276;2022-12-10T10:04:41;2.70;99.90
31979;DHT22;18502;43.574;1.276;2022-12-10T10:07:06;2.70;99.90
31979;DHT22;18502;43.574;1.276;2022-12-10T10:09:35;3.10;99.90
31979;DHT22;18502;43.574;1.276;2022-12-10T10:12:08;2.80;99.90
31979;DHT22;18502;43.574;1.276;2022-12-10T10:14:36;2.70;99.90
31979;DHT22;18502;43.574;1.276;2022-12-10T10:17:03;2.40;99.90
31979;DHT22;18502;43.574;1.276;2022-12-10T10:19:33;2.40;99.90
31979;DHT22;18502;43.574;1.276;2022-12-10T10:21:59;3.00;99.90
31979;DHT22;18502;43.574;1.276;2022-12-10T10:24:31;3.80;99.90
31979;DHT22;18502;43.574;1.276;2022-12-10T10:26:59;5.60;99.90
31979;DHT22;18502;43.574;1.276;2022-12-10T10:29:26;6.50;95.50
31979;DHT22;18502;43.574;1.276;2022-12-10T10:32:12;5.40;97.20
31979;DHT22;18502;43.574;1.276;2022-12-10T10:34:38;4.80;98.70
31979;DHT22;18502;43.574;1.276;2022-12-10T10:37:04;4.10;99.90
31979;DHT22;18502;43.574;1.276;2022-12-10T10:39:31;6.60;96.80
31979;DHT22;18502;43.574;1.276;2022-12-10T10:41:58;8.70;93.10
31979;DHT22;18502;43.574;1.276;2022-12-10T10:44:27;11.40;82.30
31979;DHT22;18502;43.574;1.276;2022-12-10T10:46:54;8.40;85.80
31979;DHT22;18502;43.574;1.276;2022-12-10T10:49:26;7.90;88.10
31979;DHT22;18502;43.574;1.276;2022-12-10T10:51:54;8.90;82.10
31979;DHT22;18502;43.574;1.276;2022-12-10T10:54:39;9.60;83.30
31979;DHT22;18502;43.574;1.276;2022-12-10T10:59:54;7.80;83.10
31979;DHT22;18502;43.574;1.276;2022-12-10T11:02:30;10.70;75.30
31979;DHT22;18502;43.574;1.276;2022-12-10T11:04:58;12.00;71.70
31979;DHT22;18502;43.574;1.276;2022-12-10T11:09:55;12.80;62.60
31979;DHT22;18502;43.574;1.276;2022-12-10T11:14:55;10.50;66.70
31979;DHT22;18502;43.574;1.276;2022-12-10T11:17:22;10.40;66.70
31979;DHT22;18502;43.574;1.276;2022-12-10T11:20:12;10.60;65.50
31979;DHT22;18502;43.574;1.276;2022-12-10T11:22:41;9.60;66.50
31979;DHT22;18502;43.574;1.276;2022-12-10T11:25:14;10.50;65.80
31979;DHT22;18502;43.574;1.276;2022-12-10T11:30:06;11.50;63.00
31979;DHT22;18502;43.574;1.276;2022-12-10T11:37:44;17.20;50.70
31979;DHT22;18502;43.574;1.276;2022-12-10T11:54:19;14.80;47.50
31979;DHT22;18502;43.574;1.276;2022-12-10T11:56:53;14.50;47.90
31979;DHT22;18502;43.574;1.276;2022-12-10T11:59:29;12.70;50.20
31979;DHT22;18502;43.574;1.276;2022-12-10T12:02:05;12.90;50.70
31979;DHT22;18502;43.574;1.276;2022-12-10T12:15:21;12.80;47.10
31979;DHT22;18502;43.574;1.276;2022-12-10T12:17:54;13.60;48.20
31979;DHT22;18502;43.574;1.276;2022-12-10T12:22:51;15.00;44.30
31979;DHT22;18502;43.574;1.276;2022-12-10T12:25:23;15.90;44.40
31979;DHT22;18502;43.574;1.276;2022-12-10T12:28:51;14.50;43.40
31979;DHT22;18502;43.574;1.276;2022-12-10T12:30:45;14.00;45.00
31979;DHT22;18502;43.574;1.276;2022-12-10T12:33:13;15.50;44.60
31979;DHT22;18502;43.574;1.276;2022-12-10T12:35:43;17.30;40.80
31979;DHT22;18502;43.574;1.276;2022-12-10T12:40:43;13.70;47.20
31979;DHT22;18502;43.574;1.276;2022-12-10T12:43:13;14.00;45.80
31979;DHT22;18502;43.574;1.276;2022-12-10T12:45:43;15.50;43.00
31979;DHT22;18502;43.574;1.276;2022-12-10T12:50:43;17.70;41.80
31979;DHT22;18502;43.574;1.276;2022-12-10T12:53:13;18.40;39.70
31979;DHT22;18502;43.574;1.276;2022-12-10T12:55:44;20.10;37.00
31979;DHT22;18502;43.574;1.276;2022-12-10T13:00:43;20.10;35.40
31979;DHT22;18502;43.574;1.276;2022-12-10T13:05:45;10.40;49.00
31979;DHT22;18502;43.574;1.276;2022-12-10T13:10:44;14.00;48.00
31979;DHT22;18502;43.574;1.276;2022-12-10T13:13:19;12.10;48.30
31979;DHT22;18502;43.574;1.276;2022-12-10T13:15:47;13.80;44.60
31979;DHT22;18502;43.574;1.276;2022-12-10T13:23:50;14.20;42.80
31979;DHT22;18502;43.574;1.276;2022-12-10T13:33:44;7.60;58.20
31979;DHT22;18502;43.574;1.276;2022-12-10T13:36:10;9.70;57.20
31979;DHT22;18502;43.574;1.276;2022-12-10T13:38:53;12.00;50.70
31979;DHT22;18502;43.574;1.276;2022-12-10T13:41:20;13.50;50.30
31979;DHT22;18502;43.574;1.276;2022-12-10T13:44:21;10.30;52.20
31979;DHT22;18502;43.574;1.276;2022-12-10T13:46:53;8.00;57.60
31979;DHT22;18502;43.574;1.276;2022-12-10T13:49:22;7.80;59.60
31979;DHT22;18502;43.574;1.276;2022-12-10T14:07:17;6.30;61.50
31979;DHT22;18502;43.574;1.276;2022-12-10T14:09:45;6.50;62.90
31979;DHT22;18502;43.574;1.276;2022-12-10T14:12:21;6.30;62.90
31979;DHT22;18502;43.574;1.276;2022-12-10T14:14:53;6.30;63.20
31979;DHT22;18502;43.574;1.276;2022-12-10T14:17:21;6.00;64.60
31979;DHT22;18502;43.574;1.276;2022-12-10T14:19:49;8.20;60.20
31979;DHT22;18502;43.574;1.276;2022-12-10T14:22:16;7.20;60.80
31979;DHT22;18502;43.574;1.276;2022-12-10T14:24:43;7.20;61.80
31979;DHT22;18502;43.574;1.276;2022-12-10T14:27:21;8.20;60.30
31979;DHT22;18502;43.574;1.276;2022-12-10T14:29:53;7.30;60.80
31979;DHT22;18502;43.574;1.276;2022-12-10T14:32:36;7.10;62.80
31979;DHT22;18502;43.574;1.276;2022-12-10T14:35:06;6.80;63.50
31979;DHT22;18502;43.574;1.276;2022-12-10T14:37:35;6.50;64.40
31979;DHT22;18502;43.574;1.276;2022-12-10T14:40:01;6.30;63.00
31979;DHT22;18502;43.574;1.276;2022-12-10T14:42:29;6.10;63.20
31979;DHT22;18502;43.574;1.276;2022-12-10T14:44:57;6.40;63.00
31979;DHT22;18502;43.574;1.276;2022-12-10T14:47:23;6.20;63.90
31979;DHT22;18502;43.574;1.276;2022-12-10T14:49:49;6.30;64.10
31979;DHT22;18502;43.574;1.276;2022-12-10T14:52:17;6.00;63.60
31979;DHT22;18502;43.574;1.276;2022-12-10T14:54:43;5.80;64.60
31979;DHT22;18502;43.574;1.276;2022-12-10T14:57:13;5.90;65.10
31979;DHT22;18502;43.574;1.276;2022-12-10T15:05:01;5.90;65.30
31979;DHT22;18502;43.574;1.276;2022-12-10T15:07:32;5.90;65.00
31979;DHT22;18502;43.574;1.276;2022-12-10T15:10:00;6.40;65.60
31979;DHT22;18502;43.574;1.276;2022-12-10T15:12:28;6.80;61.70
31979;DHT22;18502;43.574;1.276;2022-12-10T15:14:55;6.00;65.10
31979;DHT22;18502;43.574;1.276;2022-12-10T15:20:20;5.50;66.60
31979;DHT22;18502;43.574;1.276;2022-12-10T15:22:46;5.10;67.10
31979;DHT22;18502;43.574;1.276;2022-12-10T15:25:22;5.10;67.50
31979;DHT22;18502;43.574;1.276;2022-12-10T15:27:59;4.80;68.20
31979;DHT22;18502;43.574;1.276;2022-12-10T15:30:44;4.80;69.70
31979;DHT22;18502;43.574;1.276;2022-12-10T15:33:20;4.80;69.60
31979;DHT22;18502;43.574;1.276;2022-12-10T15:35:47;4.60;70.50
31979;DHT22;18502;43.574;1.276;2022-12-10T15:38:13;4.30;71.60
31979;DHT22;18502;43.574;1.276;2022-12-10T15:40:38;4.50;72.10
31979;DHT22;18502;43.574;1.276;2022-12-10T15:43:46;5.00;70.40
31979;DHT22;18502;43.574;1.276;2022-12-10T15:45:54;5.10;70.20
31979;DHT22;18502;43.574;1.276;2022-12-10T15:48:20;5.00;70.50
31979;DHT22;18502;43.574;1.276;2022-12-10T15:50:46;4.70;70.20
31979;DHT22;18502;43.574;1.276;2022-12-10T15:53:14;4.70;71.20
31979;DHT22;18502;43.574;1.276;2022-12-10T15:55:41;4.40;71.60
31979;DHT22;18502;43.574;1.276;2022-12-10T15:58:10;4.20;72.20
31979;DHT22;18502;43.574;1.276;2022-12-10T16:00:36;3.90;72.80
31979;DHT22;18502;43.574;1.276;2022-12-10T16:03:03;3.80;74.60
31979;DHT22;18502;43.574;1.276;2022-12-10T16:05:33;3.60;74.50
31979;DHT22;18502;43.574;1.276;2022-12-10T16:08:01;3.30;74.60
31979;DHT22;18502;43.574;1.276;2022-12-10T16:10:31;3.10;76.40
31979;DHT22;18502;43.574;1.276;2022-12-10T16:15:23;3.00;77.50
31979;DHT22;18502;43.574;1.276;2022-12-10T16:17:52;2.80;78.30
31979;DHT22;18502;43.574;1.276;2022-12-10T16:20:23;2.70;79.30
31979;DHT22;18502;43.574;1.276;2022-12-10T16:22:51;2.50;83.50
31979;DHT22;18502;43.574;1.276;2022-12-10T16:25:17;2.40;86.10
31979;DHT22;18502;43.574;1.276;2022-12-10T16:27:42;2.20;88.70
31979;DHT22;18502;43.574;1.276;2022-12-10T16:32:37;2.10;91.40
31979;DHT22;18502;43.574;1.276;2022-12-10T16:35:02;2.00;92.40
31979;DHT22;18502;43.574;1.276;2022-12-10T16:37:28;1.80;92.80
31979;DHT22;18502;43.574;1.276;2022-12-10T16:39:54;1.70;93.40
31979;DHT22;18502;43.574;1.276;2022-12-10T16:42:19;1.50;93.80
31979;DHT22;18502;43.574;1.276;2022-12-10T16:44:45;1.40;94.60
31979;DHT22;18502;43.574;1.276;2022-12-10T16:47:11;1.30;95.00
31979;DHT22;18502;43.574;1.276;2022-12-10T16:49:37;1.20;95.40
31979;DHT22;18502;43.574;1.276;2022-12-10T16:52:02;1.10;96.00
31979;DHT22;18502;43.574;1.276;2022-12-10T16:54:29;1.10;96.20
31979;DHT22;18502;43.574;1.276;2022-12-10T16:56:54;1.00;96.70
31979;DHT22;18502;43.574;1.276;2022-12-10T16:59:20;0.90;97.00
31979;DHT22;18502;43.574;1.276;2022-12-10T17:01:46;0.90;97.20
31979;DHT22;18502;43.574;1.276;2022-12-10T17:04:11;0.80;97.40
31979;DHT22;18502;43.574;1.276;2022-12-10T17:06:37;0.80;97.70
31979;DHT22;18502;43.574;1.276;2022-12-10T17:09:03;0.70;98.20
31979;DHT22;18502;43.574;1.276;2022-12-10T17:11:30;0.60;98.60
31979;DHT22;18502;43.574;1.276;2022-12-10T17:16:52;0.40;99.60
31979;DHT22;18502;43.574;1.276;2022-12-10T17:19:18;0.30;99.90
31979;DHT22;18502;43.574;1.276;2022-12-10T17:21:43;0.30;99.90
31979;DHT22;18502;43.574;1.276;2022-12-10T17:24:09;0.30;99.90
31979;DHT22;18502;43.574;1.276;2022-12-10T17:26:36;0.20;99.90
31979;DHT22;18502;43.574;1.276;2022-12-10T17:29:04;0.20;99.90
31979;DHT22;18502;43.574;1.276;2022-12-10T17:31:30;0.20;99.90
31979;DHT22;18502;43.574;1.276;2022-12-10T17:33:56;0.10;99.90
31979;DHT22;18502;43.574;1.276;2022-12-10T17:36:21;0.00;99.90
31979;DHT22;18502;43.574;1.276;2022-12-10T17:38:47;-0.10;99.90
31979;DHT22;18502;43.574;1.276;2022-12-10T17:41:12;-0.10;99.90
31979;DHT22;18502;43.574;1.276;2022-12-10T17:43:41;-0.20;99.90
31979;DHT22;18502;43.574;1.276;2022-12-10T17:46:08;-0.20;99.90
31979;DHT22;18502;43.574;1.276;2022-12-10T17:48:34;-0.20;99.90
31979;DHT22;18502;43.574;1.276;2022-12-10T17:50:59;-0.40;99.90
31979;DHT22;18502;43.574;1.276;2022-12-10T17:53:25;-0.40;99.90
31979;DHT22;18502;43.574;1.276;2022-12-10T17:55:54;-0.50;99.90
31979;DHT22;18502;43.574;1.276;2022-12-10T17:58:20;-0.50;99.90